Terminal Aerodrome Forecast
Issued by NWS

Home | Current Version | Previous Version | Text Only | Print | Product List | Glossary On
Versions: 1 2 3 4 5 6 7 8 9 10 11 12 13 14 15
113
FTPA31 PHFO 282340
TAFHJH
TAF
PHJH 282340Z 2900/2924 32009KT P6SM SCT030 SCT050
     FM290700 08005KT P6SM FEW025 FEW050
     FM292100 30009KT P6SM SCT030 SCT050
      AMD NOT SKED AFT 290400=

USA.gov is the U.S. government's official web portal to all federal, state and local government web resources and services.